sensor_id;sensor_type;location;lat;lon;timestamp;pressure;altitude;pressure_sealevel;temperature;humidity
34506;BME280;20748;42.632;23.198;2023-06-05T00:02:21;92504.94;;;12.12;100.00
34506;BME280;20748;42.632;23.198;2023-06-05T00:04:54;92505.41;;;12.14;100.00
34506;BME280;20748;42.632;23.198;2023-06-05T00:07:27;92502.44;;;12.07;100.00
34506;BME280;20748;42.632;23.198;2023-06-05T00:09:59;92501.34;;;12.08;100.00
34506;BME280;20748;42.632;23.198;2023-06-05T00:12:32;92495.16;;;12.04;100.00
34506;BME280;20748;42.632;23.198;2023-06-05T00:15:05;92501.53;;;11.98;100.00
34506;BME280;20748;42.632;23.198;2023-06-05T00:17:38;92505.22;;;11.97;100.00
34506;BME280;20748;42.632;23.198;2023-06-05T00:20:11;92503.88;;;11.99;100.00
34506;BME280;20748;42.632;23.198;2023-06-05T00:22:44;92510.94;;;11.99;100.00
34506;BME280;20748;42.632;23.198;2023-06-05T00:25:16;92504.06;;;12.03;100.00
34506;BME280;20748;42.632;23.198;2023-06-05T00:27:48;92505.88;;;12.02;100.00
34506;BME280;20748;42.632;23.198;2023-06-05T00:30:21;92505.13;;;12.02;100.00
34506;BME280;20748;42.632;23.198;2023-06-05T00:32:53;92499.59;;;12.03;100.00
34506;BME280;20748;42.632;23.198;2023-06-05T00:35:27;92504.66;;;12.00;100.00
34506;BME280;20748;42.632;23.198;2023-06-05T00:37:59;92503.41;;;11.97;100.00
34506;BME280;20748;42.632;23.198;2023-06-05T00:40:32;92505.50;;;11.95;100.00
34506;BME280;20748;42.632;23.198;2023-06-05T00:43:04;92500.00;;;11.82;100.00
34506;BME280;20748;42.632;23.198;2023-06-05T00:45:38;92497.97;;;11.93;100.00
34506;BME280;20748;42.632;23.198;2023-06-05T00:48:11;92495.16;;;11.90;100.00
34506;BME280;20748;42.632;23.198;2023-06-05T00:50:44;92489.81;;;11.95;100.00
34506;BME280;20748;42.632;23.198;2023-06-05T00:53:17;92490.31;;;11.97;100.00
34506;BME280;20748;42.632;23.198;2023-06-05T00:55:50;92485.88;;;11.84;100.00
34506;BME280;20748;42.632;23.198;2023-06-05T00:58:24;92485.47;;;11.90;100.00
34506;BME280;20748;42.632;23.198;2023-06-05T01:00:57;92489.75;;;11.86;100.00
34506;BME280;20748;42.632;23.198;2023-06-05T01:03:30;92484.25;;;11.74;100.00
34506;BME280;20748;42.632;23.198;2023-06-05T01:06:06;92477.09;;;11.79;100.00
34506;BME280;20748;42.632;23.198;2023-06-05T01:08:38;92473.13;;;11.82;100.00
34506;BME280;20748;42.632;23.198;2023-06-05T01:11:16;92474.84;;;11.87;100.00
34506;BME280;20748;42.632;23.198;2023-06-05T01:13:57;92472.50;;;11.85;100.00
34506;BME280;20748;42.632;23.198;2023-06-05T01:16:35;92469.13;;;11.85;100.00
34506;BME280;20748;42.632;23.198;2023-06-05T01:19:13;92469.25;;;11.79;100.00
34506;BME280;20748;42.632;23.198;2023-06-05T01:21:47;92462.66;;;11.82;100.00
34506;BME280;20748;42.632;23.198;2023-06-05T01:24:22;92456.53;;;11.87;100.00
34506;BME280;20748;42.632;23.198;2023-06-05T01:27:02;92457.13;;;11.84;100.00
34506;BME280;20748;42.632;23.198;2023-06-05T01:29:39;92453.81;;;11.92;100.00
34506;BME280;20748;42.632;23.198;2023-06-05T01:32:21;92442.41;;;11.88;100.00
34506;BME280;20748;42.632;23.198;2023-06-05T01:34:57;92439.13;;;11.82;100.00
34506;BME280;20748;42.632;23.198;2023-06-05T01:37:32;92445.91;;;11.83;100.00
34506;BME280;20748;42.632;23.198;2023-06-05T01:40:16;92446.28;;;11.76;100.00
34506;BME280;20748;42.632;23.198;2023-06-05T01:42:50;92444.34;;;11.82;100.00
34506;BME280;20748;42.632;23.198;2023-06-05T01:45:23;92449.38;;;11.78;100.00
34506;BME280;20748;42.632;23.198;2023-06-05T01:47:56;92449.19;;;11.75;100.00
34506;BME280;20748;42.632;23.198;2023-06-05T01:50:33;92447.38;;;11.75;100.00
34506;BME280;20748;42.632;23.198;2023-06-05T01:53:06;92453.84;;;11.78;100.00
34506;BME280;20748;42.632;23.198;2023-06-05T01:55:39;92455.09;;;11.80;100.00
34506;BME280;20748;42.632;23.198;2023-06-05T01:58:12;92450.09;;;11.70;100.00
34506;BME280;20748;42.632;23.198;2023-06-05T02:00:45;92453.75;;;11.69;100.00
34506;BME280;20748;42.632;23.198;2023-06-05T02:03:18;92450.47;;;11.63;100.00
34506;BME280;20748;42.632;23.198;2023-06-05T02:05:51;92454.22;;;11.71;100.00
34506;BME280;20748;42.632;23.198;2023-06-05T02:08:24;92454.22;;;11.71;100.00
34506;BME280;20748;42.632;23.198;2023-06-05T02:10:57;92451.25;;;11.64;100.00
34506;BME280;20748;42.632;23.198;2023-06-05T02:13:34;92452.31;;;11.63;100.00
34506;BME280;20748;42.632;23.198;2023-06-05T02:16:10;92451.44;;;11.67;100.00
34506;BME280;20748;42.632;23.198;2023-06-05T02:18:42;92449.03;;;11.57;100.00
34506;BME280;20748;42.632;23.198;2023-06-05T02:21:15;92445.94;;;11.55;100.00
34506;BME280;20748;42.632;23.198;2023-06-05T02:23:47;92449.63;;;11.54;100.00
34506;BME280;20748;42.632;23.198;2023-06-05T02:26:22;92449.53;;;11.59;100.00
34506;BME280;20748;42.632;23.198;2023-06-05T02:28:55;92438.97;;;11.50;100.00
34506;BME280;20748;42.632;23.198;2023-06-05T02:31:29;92451.16;;;11.55;100.00
34506;BME280;20748;42.632;23.198;2023-06-05T02:34:02;92446.13;;;11.59;100.00
34506;BME280;20748;42.632;23.198;2023-06-05T02:36:35;92453.00;;;11.54;100.00
34506;BME280;20748;42.632;23.198;2023-06-05T02:39:08;92449.13;;;11.52;100.00
34506;BME280;20748;42.632;23.198;2023-06-05T02:41:42;92453.00;;;11.54;100.00
34506;BME280;20748;42.632;23.198;2023-06-05T02:44:16;92447.09;;;11.49;100.00
34506;BME280;20748;42.632;23.198;2023-06-05T02:46:48;92443.25;;;11.46;100.00
34506;BME280;20748;42.632;23.198;2023-06-05T02:49:21;92446.13;;;11.45;100.00
34506;BME280;20748;42.632;23.198;2023-06-05T02:51:53;92447.28;;;11.52;100.00
34506;BME280;20748;42.632;23.198;2023-06-05T02:54:27;92443.16;;;11.51;100.00
34506;BME280;20748;42.632;23.198;2023-06-05T02:57:03;92445.38;;;11.44;100.00
34506;BME280;20748;42.632;23.198;2023-06-05T02:59:38;92446.66;;;11.33;100.00
34506;BME280;20748;42.632;23.198;2023-06-05T03:02:15;92446.03;;;11.36;100.00
34506;BME280;20748;42.632;23.198;2023-06-05T03:04:50;92453.41;;;11.34;100.00
34506;BME280;20748;42.632;23.198;2023-06-05T03:07:27;92452.72;;;11.42;100.00
34506;BME280;20748;42.632;23.198;2023-06-05T03:10:01;92458.53;;;11.39;100.00
34506;BME280;20748;42.632;23.198;2023-06-05T03:12:35;92464.34;;;11.36;100.00
34506;BME280;20748;42.632;23.198;2023-06-05T03:15:08;92467.31;;;11.43;100.00
34506;BME280;20748;42.632;23.198;2023-06-05T03:17:41;92469.38;;;11.32;100.00
34506;BME280;20748;42.632;23.198;2023-06-05T03:20:16;92469.38;;;11.32;100.00
34506;BME280;20748;42.632;23.198;2023-06-05T03:22:49;92475.94;;;11.30;100.00
34506;BME280;20748;42.632;23.198;2023-06-05T03:25:21;92471.78;;;11.28;100.00
34506;BME280;20748;42.632;23.198;2023-06-05T03:27:59;92472.44;;;11.34;100.00
34506;BME280;20748;42.632;23.198;2023-06-05T03:30:41;92471.69;;;11.34;100.00
34506;BME280;20748;42.632;23.198;2023-06-05T03:33:14;92468.31;;;11.33;100.00
34506;BME280;20748;42.632;23.198;2023-06-05T03:35:49;92464.44;;;11.31;100.00
34506;BME280;20748;42.632;23.198;2023-06-05T03:38:22;92476.63;;;11.35;100.00
34506;BME280;20748;42.632;23.198;2023-06-05T03:40:54;92474.78;;;11.36;100.00
34506;BME280;20748;42.632;23.198;2023-06-05T03:43:27;92474.78;;;11.36;100.00
34506;BME280;20748;42.632;23.198;2023-06-05T03:45:59;92476.63;;;11.35;100.00
34506;BME280;20748;42.632;23.198;2023-06-05T03:48:32;92477.31;;;11.41;100.00
34506;BME280;20748;42.632;23.198;2023-06-05T03:51:05;92467.44;;;11.38;100.00
34506;BME280;20748;42.632;23.198;2023-06-05T03:53:38;92475.28;;;11.38;100.00
34506;BME280;20748;42.632;23.198;2023-06-05T03:56:12;92480.19;;;11.39;100.00
34506;BME280;20748;42.632;23.198;2023-06-05T03:58:47;92479.81;;;11.46;100.00
34506;BME280;20748;42.632;23.198;2023-06-05T04:01:20;92485.03;;;11.46;100.00
34506;BME280;20748;42.632;23.198;2023-06-05T04:03:53;92486.13;;;11.45;100.00
34506;BME280;20748;42.632;23.198;2023-06-05T04:06:25;92488.91;;;11.49;100.00
34506;BME280;20748;42.632;23.198;2023-06-05T04:08:58;92483.41;;;11.50;100.00
34506;BME280;20748;42.632;23.198;2023-06-05T04:11:31;92485.03;;;11.60;100.00
34506;BME280;20748;42.632;23.198;2023-06-05T04:14:05;92482.34;;;11.65;100.00
34506;BME280;20748;42.632;23.198;2023-06-05T04:16:40;92487.53;;;11.79;100.00
34506;BME280;20748;42.632;23.198;2023-06-05T04:19:17;92486.25;;;11.91;100.00
34506;BME280;20748;42.632;23.198;2023-06-05T04:21:52;92488.75;;;11.96;100.00
34506;BME280;20748;42.632;23.198;2023-06-05T04:24:25;92480.16;;;11.95;100.00
34506;BME280;20748;42.632;23.198;2023-06-05T04:26:57;92468.72;;;12.05;100.00
34506;BME280;20748;42.632;23.198;2023-06-05T04:29:33;92474.81;;;12.15;100.00
34506;BME280;20748;42.632;23.198;2023-06-05T04:32:06;92467.72;;;12.15;100.00
34506;BME280;20748;42.632;23.198;2023-06-05T04:34:39;92467.31;;;12.22;100.00
34506;BME280;20748;42.632;23.198;2023-06-05T04:37:12;92465.84;;;12.30;100.00
34506;BME280;20748;42.632;23.198;2023-06-05T04:39:44;92463.97;;;12.30;100.00
34506;BME280;20748;42.632;23.198;2023-06-05T04:42:17;92460.97;;;12.37;100.00
34506;BME280;20748;42.632;23.198;2023-06-05T04:44:56;92472.25;;;12.46;100.00
34506;BME280;20748;42.632;23.198;2023-06-05T04:47:30;92475.06;;;12.50;100.00
34506;BME280;20748;42.632;23.198;2023-06-05T04:50:04;92472.63;;;12.54;100.00
34506;BME280;20748;42.632;23.198;2023-06-05T04:52:39;92474.97;;;12.64;100.00
34506;BME280;20748;42.632;23.198;2023-06-05T04:55:12;92481.34;;;12.72;100.00
34506;BME280;20748;42.632;23.198;2023-06-05T04:57:47;92471.94;;;12.71;100.00
34506;BME280;20748;42.632;23.198;2023-06-05T05:00:21;92480.19;;;12.87;100.00
34506;BME280;20748;42.632;23.198;2023-06-05T05:02:54;92481.78;;;12.97;100.00
34506;BME280;20748;42.632;23.198;2023-06-05T05:05:27;92480.78;;;13.07;100.00
34506;BME280;20748;42.632;23.198;2023-06-05T05:08:00;92484.97;;;13.16;100.00
34506;BME280;20748;42.632;23.198;2023-06-05T05:10:33;92479.28;;;13.23;100.00
34506;BME280;20748;42.632;23.198;2023-06-05T05:13:06;92481.34;;;13.35;100.00
34506;BME280;20748;42.632;23.198;2023-06-05T05:15:39;92477.97;;;13.43;100.00
34506;BME280;20748;42.632;23.198;2023-06-05T05:18:11;92475.28;;;13.58;100.00
34506;BME280;20748;42.632;23.198;2023-06-05T05:20:44;92472.38;;;13.68;100.00
34506;BME280;20748;42.632;23.198;2023-06-05T05:23:17;92470.88;;;13.85;100.00
34506;BME280;20748;42.632;23.198;2023-06-05T05:25:50;92473.19;;;13.95;100.00
34506;BME280;20748;42.632;23.198;2023-06-05T05:28:23;92473.34;;;13.99;100.00
34506;BME280;20748;42.632;23.198;2023-06-05T05:30:56;92465.66;;;14.11;100.00
34506;BME280;20748;42.632;23.198;2023-06-05T05:33:29;92466.56;;;14.33;100.00
34506;BME280;20748;42.632;23.198;2023-06-05T05:36:02;92474.75;;;14.49;100.00
34506;BME280;20748;42.632;23.198;2023-06-05T05:38:35;92464.41;;;14.53;100.00
34506;BME280;20748;42.632;23.198;2023-06-05T05:41:07;92460.53;;;14.59;100.00
34506;BME280;20748;42.632;23.198;2023-06-05T05:43:40;92456.22;;;14.63;100.00
34506;BME280;20748;42.632;23.198;2023-06-05T05:46:13;92464.69;;;14.69;100.00
34506;BME280;20748;42.632;23.198;2023-06-05T05:48:46;92458.97;;;14.67;100.00
34506;BME280;20748;42.632;23.198;2023-06-05T05:51:18;92459.44;;;14.60;100.00
34506;BME280;20748;42.632;23.198;2023-06-05T05:53:51;92449.56;;;14.66;100.00
34506;BME280;20748;42.632;23.198;2023-06-05T05:56:23;92463.00;;;14.73;100.00
34506;BME280;20748;42.632;23.198;2023-06-05T05:58:56;92454.97;;;14.78;100.00
34506;BME280;20748;42.632;23.198;2023-06-05T06:01:29;92464.22;;;14.84;100.00
34506;BME280;20748;42.632;23.198;2023-06-05T06:04:02;92465.91;;;14.89;100.00
34506;BME280;20748;42.632;23.198;2023-06-05T06:06:35;92459.84;;;14.97;100.00
34506;BME280;20748;42.632;23.198;2023-06-05T06:09:09;92460.50;;;14.94;100.00
34506;BME280;20748;42.632;23.198;2023-06-05T06:11:42;92450.56;;;15.00;100.00
34506;BME280;20748;42.632;23.198;2023-06-05T06:14:15;92463.22;;;15.15;100.00
34506;BME280;20748;42.632;23.198;2023-06-05T06:16:48;92455.28;;;15.24;100.00
34506;BME280;20748;42.632;23.198;2023-06-05T06:19:21;92457.44;;;15.31;100.00
34506;BME280;20748;42.632;23.198;2023-06-05T06:21:55;92451.72;;;15.29;100.00
34506;BME280;20748;42.632;23.198;2023-06-05T06:24:27;92456.03;;;15.34;100.00
34506;BME280;20748;42.632;23.198;2023-06-05T06:26:59;92462.19;;;15.38;100.00
34506;BME280;20748;42.632;23.198;2023-06-05T06:29:32;92459.22;;;15.48;100.00
34506;BME280;20748;42.632;23.198;2023-06-05T06:32:05;92455.97;;;15.51;100.00
34506;BME280;20748;42.632;23.198;2023-06-05T06:34:39;92449.91;;;15.51;100.00
34506;BME280;20748;42.632;23.198;2023-06-05T06:37:14;92453.13;;;15.56;100.00
34506;BME280;20748;42.632;23.198;2023-06-05T06:39:47;92439.66;;;15.58;100.00
34506;BME280;20748;42.632;23.198;2023-06-05T06:42:19;92457.97;;;15.76;100.00
34506;BME280;20748;42.632;23.198;2023-06-05T06:45:06;92443.84;;;15.80;100.00
34506;BME280;20748;42.632;23.198;2023-06-05T06:47:39;92447.09;;;15.86;100.00
34506;BME280;20748;42.632;23.198;2023-06-05T06:50:14;92449.69;;;15.95;100.00
34506;BME280;20748;42.632;23.198;2023-06-05T06:52:46;92456.38;;;15.92;100.00
34506;BME280;20748;42.632;23.198;2023-06-05T06:55:19;92444.28;;;15.91;100.00
34506;BME280;20748;42.632;23.198;2023-06-05T06:57:51;92438.72;;;15.93;100.00
34506;BME280;20748;42.632;23.198;2023-06-05T07:00:23;92445.97;;;16.17;100.00
34506;BME280;20748;42.632;23.198;2023-06-05T07:02:57;92452.31;;;16.16;100.00
34506;BME280;20748;42.632;23.198;2023-06-05T07:05:29;92442.63;;;16.29;100.00
34506;BME280;20748;42.632;23.198;2023-06-05T07:08:02;92449.38;;;16.39;100.00
34506;BME280;20748;42.632;23.198;2023-06-05T07:10:34;92447.41;;;16.48;100.00
34506;BME280;20748;42.632;23.198;2023-06-05T07:13:06;92443.88;;;16.66;100.00
34506;BME280;20748;42.632;23.198;2023-06-05T07:15:39;92449.56;;;16.68;100.00
34506;BME280;20748;42.632;23.198;2023-06-05T07:18:12;92452.59;;;16.78;100.00
34506;BME280;20748;42.632;23.198;2023-06-05T07:20:44;92458.53;;;17.00;100.00
34506;BME280;20748;42.632;23.198;2023-06-05T07:23:17;92458.22;;;17.02;100.00
34506;BME280;20748;42.632;23.198;2023-06-05T07:25:52;92457.63;;;17.05;100.00
34506;BME280;20748;42.632;23.198;2023-06-05T07:28:25;92466.50;;;17.13;100.00
34506;BME280;20748;42.632;23.198;2023-06-05T07:30:57;92468.06;;;17.14;100.00
34506;BME280;20748;42.632;23.198;2023-06-05T07:33:33;92469.94;;;17.26;100.00
34506;BME280;20748;42.632;23.198;2023-06-05T07:36:05;92476.44;;;17.41;100.00
34506;BME280;20748;42.632;23.198;2023-06-05T07:38:37;92478.84;;;17.46;100.00
34506;BME280;20748;42.632;23.198;2023-06-05T07:41:11;92483.91;;;17.64;100.00
34506;BME280;20748;42.632;23.198;2023-06-05T07:43:44;92492.03;;;17.58;100.00
34506;BME280;20748;42.632;23.198;2023-06-05T07:46:16;92492.25;;;17.66;100.00
34506;BME280;20748;42.632;23.198;2023-06-05T07:48:49;92491.19;;;17.67;100.00
34506;BME280;20748;42.632;23.198;2023-06-05T07:51:21;92494.25;;;17.69;100.00
34506;BME280;20748;42.632;23.198;2023-06-05T07:53:54;92492.38;;;17.69;100.00
34506;BME280;20748;42.632;23.198;2023-06-05T07:56:26;92502.59;;;17.83;100.00
34506;BME280;20748;42.632;23.198;2023-06-05T07:59:00;92500.50;;;17.89;100.00
34506;BME280;20748;42.632;23.198;2023-06-05T08:01:35;92501.94;;;17.99;100.00
34506;BME280;20748;42.632;23.198;2023-06-05T08:04:09;92492.81;;;17.96;100.00
34506;BME280;20748;42.632;23.198;2023-06-05T08:06:43;92500.06;;;18.00;100.00
34506;BME280;20748;42.632;23.198;2023-06-05T08:09:17;92501.72;;;18.04;100.00
34506;BME280;20748;42.632;23.198;2023-06-05T08:11:49;92497.09;;;18.14;100.00
34506;BME280;20748;42.632;23.198;2023-06-05T08:14:22;92502.94;;;18.07;100.00
34506;BME280;20748;42.632;23.198;2023-06-05T08:16:54;92505.25;;;18.08;100.00
34506;BME280;20748;42.632;23.198;2023-06-05T08:19:28;92502.91;;;18.19;100.00
34506;BME280;20748;42.632;23.198;2023-06-05T08:22:00;92506.00;;;18.21;100.00
34506;BME280;20748;42.632;23.198;2023-06-05T08:24:33;92511.94;;;18.18;100.00
34506;BME280;20748;42.632;23.198;2023-06-05T08:27:05;92510.28;;;18.14;100.00
34506;BME280;20748;42.632;23.198;2023-06-05T08:29:39;92516.56;;;18.21;100.00
34506;BME280;20748;42.632;23.198;2023-06-05T08:32:11;92517.75;;;18.24;100.00
34506;BME280;20748;42.632;23.198;2023-06-05T08:34:44;92510.28;;;18.26;100.00
34506;BME280;20748;42.632;23.198;2023-06-05T08:37:16;92517.78;;;18.11;100.00
34506;BME280;20748;42.632;23.198;2023-06-05T08:39:49;92514.13;;;18.16;100.00
34506;BME280;20748;42.632;23.198;2023-06-05T08:42:24;92528.53;;;18.19;100.00
34506;BME280;20748;42.632;23.198;2023-06-05T08:44:59;92520.41;;;18.24;100.00
34506;BME280;20748;42.632;23.198;2023-06-05T08:47:38;92512.47;;;18.24;100.00
34506;BME280;20748;42.632;23.198;2023-06-05T08:50:11;92517.75;;;18.24;100.00
34506;BME280;20748;42.632;23.198;2023-06-05T08:52:44;92522.06;;;18.16;100.00
34506;BME280;20748;42.632;23.198;2023-06-05T08:55:17;92516.88;;;18.20;100.00
34506;BME280;20748;42.632;23.198;2023-06-05T08:57:51;92512.94;;;18.14;100.00
34506;BME280;20748;42.632;23.198;2023-06-05T09:00:25;92519.75;;;18.27;100.00
34506;BME280;20748;42.632;23.198;2023-06-05T09:02:57;92517.97;;;18.31;100.00
34506;BME280;20748;42.632;23.198;2023-06-05T09:05:32;92524.69;;;18.29;100.00
34506;BME280;20748;42.632;23.198;2023-06-05T09:08:04;92520.03;;;18.38;100.00
34506;BME280;20748;42.632;23.198;2023-06-05T09:10:37;92523.53;;;18.55;100.00
34506;BME280;20748;42.632;23.198;2023-06-05T09:13:09;92523.81;;;18.65;100.00
34506;BME280;20748;42.632;23.198;2023-06-05T09:15:42;92520.63;;;18.72;100.00
34506;BME280;20748;42.632;23.198;2023-06-05T09:18:21;92521.91;;;18.78;100.00
34506;BME280;20748;42.632;23.198;2023-06-05T09:20:54;92523.88;;;18.82;100.00
34506;BME280;20748;42.632;23.198;2023-06-05T09:23:28;92520.91;;;18.83;100.00
34506;BME280;20748;42.632;23.198;2023-06-05T09:26:02;92519.22;;;18.91;100.00
34506;BME280;20748;42.632;23.198;2023-06-05T09:28:35;92517.84;;;19.10;100.00
34506;BME280;20748;42.632;23.198;2023-06-05T09:31:07;92516.22;;;19.21;100.00
34506;BME280;20748;42.632;23.198;2023-06-05T09:33:40;92503.78;;;19.54;100.00
34506;BME280;20748;42.632;23.198;2023-06-05T09:36:13;92498.06;;;19.68;100.00
34506;BME280;20748;42.632;23.198;2023-06-05T09:38:46;92500.63;;;19.96;100.00
34506;BME280;20748;42.632;23.198;2023-06-05T09:41:18;92508.97;;;20.15;100.00
34506;BME280;20748;42.632;23.198;2023-06-05T09:43:50;92500.22;;;20.30;100.00
34506;BME280;20748;42.632;23.198;2023-06-05T09:46:23;92502.38;;;20.44;100.00
34506;BME280;20748;42.632;23.198;2023-06-05T09:48:58;92495.13;;;20.21;95.15
34506;BME280;20748;42.632;23.198;2023-06-05T09:51:31;92488.72;;;20.22;99.61
34506;BME280;20748;42.632;23.198;2023-06-05T09:54:04;92481.69;;;20.30;100.00
34506;BME280;20748;42.632;23.198;2023-06-05T09:56:36;92492.72;;;20.72;97.15
34506;BME280;20748;42.632;23.198;2023-06-05T09:59:13;92489.06;;;21.00;91.99
34506;BME280;20748;42.632;23.198;2023-06-05T10:01:49;92493.28;;;21.01;89.33
34506;BME280;20748;42.632;23.198;2023-06-05T10:04:23;92485.69;;;21.23;92.85
34506;BME280;20748;42.632;23.198;2023-06-05T10:07:00;92492.66;;;21.54;87.71
34506;BME280;20748;42.632;23.198;2023-06-05T10:09:33;92489.75;;;21.86;86.75
34506;BME280;20748;42.632;23.198;2023-06-05T10:12:06;92495.31;;;22.05;85.12
34506;BME280;20748;42.632;23.198;2023-06-05T10:14:41;92482.47;;;22.37;83.27
34506;BME280;20748;42.632;23.198;2023-06-05T10:17:15;92485.00;;;22.57;82.76
34506;BME280;20748;42.632;23.198;2023-06-05T10:19:47;92474.63;;;22.79;82.04
34506;BME280;20748;42.632;23.198;2023-06-05T10:22:21;92479.25;;;22.86;82.18
34506;BME280;20748;42.632;23.198;2023-06-05T10:24:58;92476.38;;;23.02;84.28
34506;BME280;20748;42.632;23.198;2023-06-05T10:27:51;92479.31;;;22.89;79.04
34506;BME280;20748;42.632;23.198;2023-06-05T10:33:54;92470.34;;;22.40;80.74
34506;BME280;20748;42.632;23.198;2023-06-05T10:36:47;92468.16;;;22.46;79.07
34506;BME280;20748;42.632;23.198;2023-06-05T10:39:28;92462.09;;;22.49;82.13
34506;BME280;20748;42.632;23.198;2023-06-05T10:42:02;92461.25;;;22.41;78.98
34506;BME280;20748;42.632;23.198;2023-06-05T10:44:41;92460.31;;;22.26;77.95
34506;BME280;20748;42.632;23.198;2023-06-05T10:47:48;92453.41;;;22.21;80.37
34506;BME280;20748;42.632;23.198;2023-06-05T10:50:23;92454.97;;;22.26;77.96
34506;BME280;20748;42.632;23.198;2023-06-05T10:52:57;92445.25;;;22.07;79.73
34506;BME280;20748;42.632;23.198;2023-06-05T10:55:41;92451.31;;;22.34;76.32
34506;BME280;20748;42.632;23.198;2023-06-05T10:58:15;92451.56;;;22.25;79.31
34506;BME280;20748;42.632;23.198;2023-06-05T11:01:15;92445.75;;;22.16;79.66
34506;BME280;20748;42.632;23.198;2023-06-05T11:03:56;92446.38;;;22.36;80.38
34506;BME280;20748;42.632;23.198;2023-06-05T11:06:29;92446.53;;;22.17;80.14
34506;BME280;20748;42.632;23.198;2023-06-05T11:09:09;92445.56;;;22.02;75.28
34506;BME280;20748;42.632;23.198;2023-06-05T11:11:59;92438.22;;;21.68;80.38
34506;BME280;20748;42.632;23.198;2023-06-05T11:14:43;92441.50;;;21.81;83.79
34506;BME280;20748;42.632;23.198;2023-06-05T11:17:26;92432.97;;;21.95;81.40
34506;BME280;20748;42.632;23.198;2023-06-05T11:19:59;92427.38;;;22.04;82.15
34506;BME280;20748;42.632;23.198;2023-06-05T11:23:06;92433.22;;;21.86;82.61
34506;BME280;20748;42.632;23.198;2023-06-05T11:25:39;92429.41;;;22.14;83.20
34506;BME280;20748;42.632;23.198;2023-06-05T11:28:12;92428.44;;;22.30;87.56
34506;BME280;20748;42.632;23.198;2023-06-05T11:30:45;92434.47;;;22.23;77.38
34506;BME280;20748;42.632;23.198;2023-06-05T11:33:21;92431.53;;;22.32;83.22
34506;BME280;20748;42.632;23.198;2023-06-05T11:35:59;92433.09;;;22.36;82.96
34506;BME280;20748;42.632;23.198;2023-06-05T11:38:32;92439.22;;;22.40;84.01
34506;BME280;20748;42.632;23.198;2023-06-05T11:41:06;92428.13;;;22.65;79.83
34506;BME280;20748;42.632;23.198;2023-06-05T11:43:45;92426.81;;;22.86;79.34
34506;BME280;20748;42.632;23.198;2023-06-05T11:46:18;92423.03;;;22.87;84.32
34506;BME280;20748;42.632;23.198;2023-06-05T11:48:50;92430.00;;;22.99;76.05
34506;BME280;20748;42.632;23.198;2023-06-05T11:51:22;92422.94;;;23.18;75.90
34506;BME280;20748;42.632;23.198;2023-06-05T11:53:55;92421.47;;;23.28;76.97
34506;BME280;20748;42.632;23.198;2023-06-05T11:56:29;92409.03;;;23.36;78.10
34506;BME280;20748;42.632;23.198;2023-06-05T11:59:02;92412.97;;;23.49;76.43
34506;BME280;20748;42.632;23.198;2023-06-05T12:01:34;92407.56;;;23.45;79.35
34506;BME280;20748;42.632;23.198;2023-06-05T12:04:08;92407.88;;;23.33;78.06
34506;BME280;20748;42.632;23.198;2023-06-05T12:06:41;92415.63;;;23.49;76.38
34506;BME280;20748;42.632;23.198;2023-06-05T12:09:14;92418.28;;;23.49;73.97
34506;BME280;20748;42.632;23.198;2023-06-05T12:11:47;92416.56;;;23.79;72.83
34506;BME280;20748;42.632;23.198;2023-06-05T12:14:31;92408.72;;;24.04;69.53
34506;BME280;20748;42.632;23.198;2023-06-05T12:17:10;92399.09;;;23.89;69.97
34506;BME280;20748;42.632;23.198;2023-06-05T12:19:42;92404.88;;;23.98;69.99
34506;BME280;20748;42.632;23.198;2023-06-05T12:22:15;92395.72;;;23.92;71.46
34506;BME280;20748;42.632;23.198;2023-06-05T12:24:47;92391.56;;;23.98;71.80
34506;BME280;20748;42.632;23.198;2023-06-05T12:27:29;92385.34;;;23.76;70.88
34506;BME280;20748;42.632;23.198;2023-06-05T12:30:05;92384.47;;;23.60;69.35
34506;BME280;20748;42.632;23.198;2023-06-05T12:32:38;92389.44;;;23.62;69.94
34506;BME280;20748;42.632;23.198;2023-06-05T12:35:18;92377.22;;;23.54;69.21
34506;BME280;20748;42.632;23.198;2023-06-05T12:37:51;92376.38;;;23.39;71.37
34506;BME280;20748;42.632;23.198;2023-06-05T12:40:23;92370.56;;;23.29;71.95
34506;BME280;20748;42.632;23.198;2023-06-05T12:43:16;92370.00;;;23.09;69.50
34506;BME280;20748;42.632;23.198;2023-06-05T12:45:49;92364.00;;;23.16;73.16
34506;BME280;20748;42.632;23.198;2023-06-05T12:48:22;92361.34;;;23.16;74.23
34506;BME280;20748;42.632;23.198;2023-06-05T12:50:55;92361.66;;;23.11;71.49
34506;BME280;20748;42.632;23.198;2023-06-05T12:53:28;92363.06;;;22.93;73.74
34506;BME280;20748;42.632;23.198;2023-06-05T12:56:01;92357.50;;;23.10;77.82
34506;BME280;20748;42.632;23.198;2023-06-05T12:58:33;92347.13;;;22.97;74.08
34506;BME280;20748;42.632;23.198;2023-06-05T13:01:06;92351.63;;;22.89;71.33
34506;BME280;20748;42.632;23.198;2023-06-05T13:03:39;92353.34;;;23.16;73.73
34506;BME280;20748;42.632;23.198;2023-06-05T13:06:12;92344.97;;;23.14;74.01
34506;BME280;20748;42.632;23.198;2023-06-05T13:08:44;92353.97;;;22.98;74.36
34506;BME280;20748;42.632;23.198;2023-06-05T13:11:18;92348.28;;;23.00;75.66
34506;BME280;20748;42.632;23.198;2023-06-05T13:13:50;92350.47;;;22.90;73.94
34506;BME280;20748;42.632;23.198;2023-06-05T13:16:23;92343.94;;;22.80;76.97
34506;BME280;20748;42.632;23.198;2023-06-05T13:18:56;92338.53;;;22.70;77.35
34506;BME280;20748;42.632;23.198;2023-06-05T13:21:28;92350.94;;;22.55;74.80
34506;BME280;20748;42.632;23.198;2023-06-05T13:24:01;92346.13;;;22.71;75.70